Time;durP1;ratioP1;P1;durP2;ratioP2;P2;SDS_P1;SDS_P2;PMS_P1;PMS_P2;Temp;Humidity;BMP_temperature;BMP_pressure;BME280_temperature;BME280_humidity;BME280_pressure;Samples;Min_cycle;Max_cycle;Signal;HPM_P1;HPM_P2
2023/06/30 00:00:25;;;;;;;5.03;4.63;;;21.80;99.90;;;;;;5261280;28;20467;-48
2023/06/30 00:02:56;;;;;;;5.50;4.30;;;21.80;99.90;;;;;;5248299;28;20296;-47
2023/06/30 00:05:27;;;;;;;6.20;5.60;;;21.90;99.90;;;;;;5247042;28;20524;-48
2023/06/30 00:07:58;;;;;;;5.50;4.53;;;21.90;99.90;;;;;;5243605;28;20181;-51
2023/06/30 00:10:29;;;;;;;5.10;4.50;;;21.90;99.90;;;;;;5261449;28;20484;-48
2023/06/30 00:13:00;;;;;;;6.03;5.43;;;21.90;99.90;;;;;;5254021;28;20939;-47
2023/06/30 00:15:30;;;;;;;7.13;6.00;;;21.90;99.90;;;;;;5267746;28;20220;-48
2023/06/30 00:18:01;;;;;;;8.60;6.80;;;21.90;99.90;;;;;;5274404;28;20192;-48
2023/06/30 00:20:33;;;;;;;10.40;7.23;;;22.00;99.90;;;;;;5264902;28;20183;-47
2023/06/30 00:23:04;;;;;;;9.77;6.30;;;22.00;99.90;;;;;;5251697;28;20662;-48
2023/06/30 00:25:34;;;;;;;8.23;6.70;;;21.90;99.90;;;;;;5274295;28;20411;-48
2023/06/30 00:28:05;;;;;;;9.33;7.20;;;22.00;99.90;;;;;;5277646;28;20544;-48
2023/06/30 00:30:35;;;;;;;11.40;8.63;;;21.90;99.90;;;;;;5259945;28;20178;-47
2023/06/30 00:33:06;;;;;;;13.10;8.90;;;21.90;99.90;;;;;;5267238;28;20277;-49
2023/06/30 00:35:37;;;;;;;12.90;8.17;;;21.90;99.90;;;;;;5240362;28;20232;-47
2023/06/30 00:38:07;;;;;;;16.63;10.30;;;21.90;99.90;;;;;;5249537;28;20189;-47
2023/06/30 00:40:39;;;;;;;15.00;9.47;;;21.80;99.90;;;;;;5264066;28;20252;-47
2023/06/30 00:43:09;;;;;;;13.00;9.37;;;21.70;99.90;;;;;;5255442;28;20225;-47
2023/06/30 00:45:40;;;;;;;18.23;9.97;;;21.70;99.90;;;;;;5267074;28;20432;-53
2023/06/30 00:48:11;;;;;;;18.30;11.60;;;21.70;99.90;;;;;;5260967;28;20247;-47
2023/06/30 00:50:41;;;;;;;21.50;10.80;;;21.60;99.90;;;;;;5267093;28;20185;-47
2023/06/30 00:53:13;;;;;;;16.03;11.07;;;21.50;99.90;;;;;;5270420;28;20458;-47
2023/06/30 00:55:44;;;;;;;14.70;11.00;;;21.30;99.90;;;;;;5222795;28;20260;-47
2023/06/30 00:58:15;;;;;;;18.90;12.50;;;21.20;99.90;;;;;;5234913;28;20443;-47
2023/06/30 01:00:46;;;;;;;17.50;11.10;;;20.90;99.90;;;;;;5257082;28;20470;-46
2023/06/30 01:03:30;;;;;;;16.90;11.87;;;20.80;99.90;;;;;;5267580;28;20534;-47
2023/06/30 01:06:24;;;;;;;23.80;12.73;;;20.80;99.90;;;;;;5250859;28;20446;-47
2023/06/30 01:09:02;;;;;;;19.30;12.20;;;20.60;99.90;;;;;;5249857;28;20443;-48
2023/06/30 01:11:34;;;;;;;19.30;12.00;;;20.50;99.90;;;;;;5257389;28;20459;-47
2023/06/30 01:14:06;;;;;;;18.07;12.93;;;20.50;99.90;;;;;;5263820;28;20451;-47
2023/06/30 01:16:40;;;;;;;19.30;13.03;;;20.50;99.90;;;;;;5249596;28;20443;-47
2023/06/30 01:19:37;;;;;;;21.77;13.20;;;20.50;99.90;;;;;;5248944;28;20440;-47
2023/06/30 01:22:28;;;;;;;27.27;15.23;;;20.40;99.90;;;;;;5266326;28;20441;-48
2023/06/30 01:25:06;;;;;;;22.70;14.63;;;20.30;99.90;;;;;;5255913;28;20944;-47
2023/06/30 01:27:40;;;;;;;25.63;14.40;;;20.20;99.90;;;;;;5257630;28;20530;-48
2023/06/30 01:30:11;;;;;;;21.70;14.60;;;20.10;99.90;;;;;;5241645;28;20447;-47
2023/06/30 01:32:43;;;;;;;22.63;13.90;;;20.10;99.90;;;;;;5228935;28;20936;-46
2023/06/30 01:35:13;;;;;;;19.23;12.97;;;20.00;99.90;;;;;;5264769;28;20426;-47
2023/06/30 01:37:45;;;;;;;23.53;14.40;;;20.00;99.90;;;;;;5244990;28;20463;-47
2023/06/30 01:40:16;;;;;;;24.80;14.83;;;19.90;99.90;;;;;;5248719;28;20205;-47
2023/06/30 01:42:51;;;;;;;21.57;14.60;;;19.90;99.90;;;;;;5249051;28;20527;-48
2023/06/30 01:45:26;;;;;;;26.10;15.10;;;19.90;99.90;;;;;;5252605;28;20451;-47
2023/06/30 01:47:59;;;;;;;22.53;14.03;;;19.90;99.90;;;;;;5249472;28;20815;-48
2023/06/30 01:50:31;;;;;;;26.03;14.10;;;19.90;99.90;;;;;;5250152;28;20523;-48
2023/06/30 01:53:02;;;;;;;19.70;13.33;;;19.80;99.90;;;;;;5262685;28;20432;-48
2023/06/30 01:55:33;;;;;;;25.43;13.90;;;19.80;99.90;;;;;;5255945;28;20440;-48
2023/06/30 01:58:03;;;;;;;18.77;13.23;;;19.80;99.90;;;;;;5256007;28;20217;-48
2023/06/30 02:00:34;;;;;;;20.40;13.53;;;19.80;99.90;;;;;;5255219;28;20242;-48
2023/06/30 02:03:04;;;;;;;23.17;13.33;;;19.80;99.90;;;;;;5266064;28;20206;-47
2023/06/30 02:05:35;;;;;;;19.03;12.83;;;19.70;99.90;;;;;;5271034;28;20208;-47
2023/06/30 02:08:06;;;;;;;21.17;12.80;;;19.70;99.90;;;;;;5272025;28;20185;-47
2023/06/30 02:10:37;;;;;;;21.40;13.47;;;19.70;99.90;;;;;;5261443;28;20261;-48
2023/06/30 02:13:07;;;;;;;21.03;14.00;;;19.70;99.90;;;;;;5257903;28;20212;-48
2023/06/30 02:15:38;;;;;;;24.53;14.53;;;19.70;99.90;;;;;;5253341;28;20185;-48
2023/06/30 02:18:08;;;;;;;19.27;15.03;;;19.70;99.90;;;;;;5255087;28;20190;-47
2023/06/30 02:20:39;;;;;;;23.70;14.33;;;19.70;99.90;;;;;;5270125;28;20180;-47
2023/06/30 02:23:10;;;;;;;21.77;14.50;;;19.60;99.90;;;;;;5247387;28;20205;-49
2023/06/30 02:25:40;;;;;;;18.10;12.30;;;19.60;99.90;;;;;;5265921;28;20182;-48
2023/06/30 02:28:11;;;;;;;19.43;13.50;;;19.60;99.90;;;;;;5247914;28;20193;-47
2023/06/30 02:30:41;;;;;;;22.63;14.40;;;19.60;99.90;;;;;;5260540;28;20584;-48
2023/06/30 02:33:12;;;;;;;20.90;14.13;;;19.70;99.90;;;;;;5265819;28;20572;-48
2023/06/30 02:35:43;;;;;;;23.80;13.73;;;19.60;99.90;;;;;;5248019;28;20179;-47
2023/06/30 02:38:13;;;;;;;24.30;15.87;;;19.60;99.90;;;;;;5265249;28;20668;-49
2023/06/30 02:40:44;;;;;;;18.03;13.20;;;19.60;99.90;;;;;;5246199;28;20206;-47
2023/06/30 02:43:15;;;;;;;25.10;14.40;;;19.60;99.90;;;;;;5256495;28;20259;-48
2023/06/30 02:45:46;;;;;;;17.37;12.60;;;19.60;99.90;;;;;;5256770;28;20433;-47
2023/06/30 02:48:17;;;;;;;21.30;13.97;;;19.60;99.90;;;;;;5269874;28;20178;-48
2023/06/30 02:50:47;;;;;;;20.80;13.43;;;19.50;99.90;;;;;;5246703;28;20209;-46
2023/06/30 02:53:18;;;;;;;24.23;13.60;;;19.50;99.90;;;;;;5265540;28;20201;-47
2023/06/30 02:55:49;;;;;;;19.53;13.73;;;19.50;99.90;;;;;;5265296;28;20217;-48
2023/06/30 02:58:19;;;;;;;21.13;13.90;;;19.40;99.90;;;;;;5251039;28;20177;-48
2023/06/30 03:00:51;;;;;;;26.10;14.93;;;19.30;99.90;;;;;;5259539;28;20187;-48
2023/06/30 03:03:22;;;;;;;23.63;14.37;;;19.20;99.90;;;;;;5260742;28;20195;-48
2023/06/30 03:05:52;;;;;;;21.67;13.13;;;19.20;99.90;;;;;;5261591;28;20802;-48
2023/06/30 03:08:23;;;;;;;25.43;13.70;;;19.20;99.90;;;;;;5268683;28;20542;-48
2023/06/30 03:10:53;;;;;;;20.57;13.50;;;19.20;99.90;;;;;;5253631;28;20208;-47
2023/06/30 03:13:24;;;;;;;20.33;11.97;;;19.30;99.90;;;;;;5256000;28;20653;-48
2023/06/30 03:15:55;;;;;;;25.50;13.70;;;19.30;99.90;;;;;;5264271;28;20208;-46
2023/06/30 03:18:25;;;;;;;19.60;13.40;;;19.30;99.90;;;;;;5273777;28;20205;-48
2023/06/30 03:20:56;;;;;;;15.63;11.83;;;19.30;99.90;;;;;;5269954;28;20201;-47
2023/06/30 03:23:26;;;;;;;24.27;13.97;;;19.30;99.90;;;;;;5260696;28;20201;-47
2023/06/30 03:25:57;;;;;;;17.27;13.47;;;19.30;99.90;;;;;;5264273;28;20193;-48
2023/06/30 03:28:28;;;;;;;21.40;12.87;;;19.40;99.90;;;;;;5266662;28;20572;-48
2023/06/30 03:30:58;;;;;;;22.63;12.73;;;19.40;99.90;;;;;;5249888;28;20189;-47
2023/06/30 03:33:29;;;;;;;21.77;13.40;;;19.50;99.90;;;;;;5243548;28;20577;-48
2023/06/30 03:36:00;;;;;;;19.27;12.47;;;19.50;99.90;;;;;;5253476;28;20205;-48
2023/06/30 03:38:30;;;;;;;18.37;12.60;;;19.60;99.90;;;;;;5249181;28;20182;-48
2023/06/30 03:41:01;;;;;;;21.17;12.33;;;19.50;99.90;;;;;;5250497;28;20178;-48
2023/06/30 03:43:32;;;;;;;16.53;11.87;;;19.60;99.90;;;;;;5266974;28;20229;-47
2023/06/30 03:46:03;;;;;;;18.80;11.20;;;19.60;99.90;;;;;;5248949;28;20186;-47
2023/06/30 03:48:34;;;;;;;18.80;12.90;;;19.60;99.90;;;;;;5261887;28;20475;-48
2023/06/30 03:51:04;;;;;;;19.93;13.07;;;19.60;99.90;;;;;;5247663;28;20185;-47
2023/06/30 03:53:35;;;;;;;21.23;13.20;;;19.60;99.90;;;;;;5247819;28;20354;-48
2023/06/30 03:56:06;;;;;;;23.67;13.50;;;19.70;99.90;;;;;;5262975;28;20676;-46
2023/06/30 03:58:36;;;;;;;20.10;13.47;;;19.70;99.90;;;;;;5253530;28;20174;-47
2023/06/30 04:01:07;;;;;;;19.73;12.40;;;19.70;99.90;;;;;;5254386;28;20175;-47
2023/06/30 04:03:38;;;;;;;23.50;14.40;;;19.80;99.90;;;;;;5267224;28;20282;-48
2023/06/30 04:06:08;;;;;;;17.53;12.73;;;19.80;99.90;;;;;;5248221;28;20181;-47
2023/06/30 04:08:39;;;;;;;25.17;12.80;;;19.90;99.90;;;;;;5268033;28;20174;-47
2023/06/30 04:11:10;;;;;;;22.93;12.90;;;19.90;99.90;;;;;;5254749;28;20186;-49
2023/06/30 04:13:42;;;;;;;16.90;11.07;;;19.90;99.90;;;;;;5258513;28;20197;-48
2023/06/30 04:16:12;;;;;;;17.43;12.30;;;19.90;99.90;;;;;;5256387;28;20209;-48
2023/06/30 04:18:43;;;;;;;23.10;12.83;;;20.00;99.90;;;;;;5250258;28;20439;-47
2023/06/30 04:21:14;;;;;;;21.13;12.90;;;20.00;99.90;;;;;;5267292;28;20178;-48
2023/06/30 04:23:45;;;;;;;15.23;11.87;;;20.10;99.90;;;;;;5263542;28;20438;-48
2023/06/30 04:26:18;;;;;;;25.83;13.90;;;20.20;99.90;;;;;;5266010;28;20189;-48
2023/06/30 04:28:49;;;;;;;17.77;11.63;;;20.20;99.90;;;;;;5260939;28;20196;-49
2023/06/30 04:31:20;;;;;;;19.37;12.10;;;20.30;99.90;;;;;;5259989;28;20503;-47
2023/06/30 04:33:51;;;;;;;16.73;11.40;;;20.30;99.90;;;;;;5258261;28;20206;-48
2023/06/30 04:36:22;;;;;;;19.77;13.50;;;20.50;99.90;;;;;;5240494;28;21017;-49
2023/06/30 04:38:52;;;;;;;21.27;13.93;;;20.70;99.90;;;;;;5263618;28;20467;-49
2023/06/30 04:41:23;;;;;;;22.80;14.20;;;20.90;99.90;;;;;;5243057;28;20173;-48
2023/06/30 04:43:54;;;;;;;19.60;12.40;;;21.20;99.90;;;;;;5252180;22;20235;-46
2023/06/30 04:46:25;;;;;;;21.00;13.23;;;21.40;99.90;;;;;;5181918;28;20192;-46
2023/06/30 04:48:56;;;;;;;19.10;12.27;;;21.60;99.90;;;;;;5196005;28;20203;-47
2023/06/30 04:51:26;;;;;;;20.13;13.00;;;21.90;99.90;;;;;;5204345;28;20426;-47
2023/06/30 04:53:57;;;;;;;22.10;13.17;;;22.50;99.90;;;;;;5197376;28;20208;-48
2023/06/30 04:56:28;;;;;;;20.93;12.97;;;23.00;99.90;;;;;;5207193;28;20218;-46
2023/06/30 04:58:59;;;;;;;22.40;12.73;;;23.70;99.90;;;;;;5209653;28;20178;-47
2023/06/30 05:01:31;;;;;;;22.53;13.00;;;24.30;99.90;;;;;;5221693;28;20179;-47
2023/06/30 05:04:02;;;;;;;20.00;12.80;;;24.50;99.90;;;;;;5219519;28;20612;-46
2023/06/30 05:06:33;;;;;;;25.57;13.73;;;24.60;99.90;;;;;;5203032;28;20538;-48
2023/06/30 05:09:04;;;;;;;18.50;12.47;;;24.60;99.90;;;;;;5203632;28;20180;-47
2023/06/30 05:11:34;;;;;;;15.00;10.07;;;24.70;99.90;;;;;;5222628;28;20182;-47
2023/06/30 05:14:05;;;;;;;22.13;11.40;;;25.10;99.90;;;;;;5229486;28;20203;-47
2023/06/30 05:16:36;;;;;;;22.30;11.53;;;25.50;99.90;;;;;;5227559;28;20215;-47
2023/06/30 05:19:07;;;;;;;19.47;10.50;;;25.70;99.90;;;;;;5223632;28;20179;-47
2023/06/30 05:21:37;;;;;;;19.80;12.30;;;25.80;99.90;;;;;;5209011;28;20195;-47
2023/06/30 05:24:08;;;;;;;29.87;14.30;;;26.00;99.90;;;;;;5225858;28;20195;-48
2023/06/30 05:26:39;;;;;;;19.77;12.87;;;25.60;99.90;;;;;;5223618;28;20183;-48
2023/06/30 05:29:10;;;;;;;17.80;12.60;;;25.50;99.90;;;;;;5211393;28;20190;-47
2023/06/30 05:31:44;;;;;;;20.77;12.47;;;25.40;99.90;;;;;;5229062;28;20443;-47
2023/06/30 05:34:15;;;;;;;13.30;10.00;;;26.00;99.90;;;;;;5227070;28;20464;-47
2023/06/30 05:36:46;;;;;;;17.47;10.60;;;26.80;99.90;;;;;;5226119;28;20452;-47
2023/06/30 05:39:17;;;;;;;21.83;10.70;;;27.60;99.90;;;;;;5225989;28;20179;-47
2023/06/30 05:41:48;;;;;;;17.60;11.30;;;28.50;99.90;;;;;;5224949;28;20175;-47
2023/06/30 05:44:18;;;;;;;17.23;11.13;;;29.50;98.10;;;;;;5228121;28;20214;-47
2023/06/30 05:46:49;;;;;;;13.40;9.10;;;29.90;95.00;;;;;;5211495;28;20255;-47
2023/06/30 05:49:20;;;;;;;13.80;10.07;;;30.50;91.90;;;;;;5209422;28;20189;-46
2023/06/30 05:51:51;;;;;;;19.70;10.20;;;31.30;82.40;;;;;;5224229;28;20186;-46
2023/06/30 05:54:22;;;;;;;14.03;9.17;;;31.80;75.80;;;;;;5224694;28;20264;-47
2023/06/30 05:56:52;;;;;;;11.70;8.97;;;32.20;71.70;;;;;;5228322;28;20238;-47
2023/06/30 05:59:23;;;;;;;19.83;10.97;;;32.70;66.30;;;;;;5204963;28;20657;-47
2023/06/30 06:01:55;;;;;;;16.10;9.20;;;32.40;63.70;;;;;;5218831;28;20195;-47
2023/06/30 06:04:26;;;;;;;17.00;9.07;;;32.20;62.70;;;;;;5225701;28;20198;-47
2023/06/30 06:06:57;;;;;;;11.30;9.00;;;32.00;61.80;;;;;;5211309;28;20444;-47
2023/06/30 06:09:28;;;;;;;15.83;9.80;;;31.60;61.40;;;;;;5226303;28;20167;-46
2023/06/30 06:12:00;;;;;;;11.30;8.93;;;31.00;62.80;;;;;;5210822;28;20775;-46
2023/06/30 06:14:30;;;;;;;15.60;9.37;;;30.50;64.00;;;;;;5225202;28;20198;-47
2023/06/30 06:17:02;;;;;;;17.87;9.80;;;30.20;63.60;;;;;;5220837;28;20990;-46
2023/06/30 06:19:32;;;;;;;19.57;11.07;;;29.30;64.90;;;;;;5213774;28;20182;-47
2023/06/30 06:22:03;;;;;;;16.10;9.83;;;27.90;68.00;;;;;;5217922;28;20857;-46
2023/06/30 06:24:34;;;;;;;21.57;10.97;;;27.20;71.00;;;;;;5207190;28;20662;-47
2023/06/30 06:27:07;;;;;;;13.67;8.87;;;27.00;72.40;;;;;;5193172;28;20190;-46
2023/06/30 06:29:38;;;;;;;16.70;11.40;;;26.60;72.50;;;;;;5228894;28;20178;-48
2023/06/30 06:32:09;;;;;;;15.70;9.80;;;26.20;75.70;;;;;;5207650;28;20460;-46
2023/06/30 06:34:40;;;;;;;19.30;12.47;;;25.70;77.50;;;;;;5210977;28;20682;-46
2023/06/30 06:37:11;;;;;;;16.50;9.97;;;25.50;79.50;;;;;;5220397;28;20199;-45
2023/06/30 06:39:41;;;;;;;14.90;10.00;;;25.20;82.00;;;;;;5218738;28;20171;-47
2023/06/30 06:42:12;;;;;;;17.53;11.27;;;25.00;85.40;;;;;;5222615;28;20184;-47
2023/06/30 06:44:44;;;;;;;16.90;10.17;;;24.90;88.70;;;;;;5214278;28;20288;-46
2023/06/30 06:47:52;;;;;;;14.30;10.40;;;24.90;90.70;;;;;;5217219;28;20217;-46
2023/06/30 06:50:23;;;;;;;16.80;11.13;;;25.20;90.70;;;;;;5210509;28;20540;-46
2023/06/30 06:52:54;;;;;;;16.97;11.30;;;25.50;90.10;;;;;;5226094;28;20871;-46
2023/06/30 06:55:24;;;;;;;21.10;11.03;;;25.30;89.10;;;;;;5213086;28;20214;-47
2023/06/30 06:57:55;;;;;;;15.73;10.07;;;25.30;90.00;;;;;;5208862;28;20678;-46
2023/06/30 07:00:26;;;;;;;17.57;10.80;;;25.20;90.70;;;;;;5223595;28;20191;-46
2023/06/30 07:02:56;;;;;;;18.83;11.27;;;25.10;91.20;;;;;;5219740;28;20172;-47
2023/06/30 07:05:27;;;;;;;12.70;9.47;;;24.90;91.50;;;;;;5227072;28;20175;-47
2023/06/30 07:07:58;;;;;;;20.80;11.00;;;24.60;92.10;;;;;;5225809;28;20183;-46
2023/06/30 07:10:29;;;;;;;18.10;10.43;;;24.40;93.00;;;;;;5217728;28;20206;-47
2023/06/30 07:13:01;;;;;;;16.13;10.30;;;24.30;93.90;;;;;;5227679;28;20191;-46
2023/06/30 07:15:32;;;;;;;13.87;10.30;;;24.10;94.50;;;;;;5225797;28;20556;-45
2023/06/30 07:18:03;;;;;;;16.80;10.70;;;23.80;95.40;;;;;;5229037;28;20453;-46
2023/06/30 07:20:34;;;;;;;17.20;10.00;;;23.60;96.70;;;;;;5224177;28;20413;-46
2023/06/30 07:23:04;;;;;;;20.30;11.27;;;23.50;98.00;;;;;;5211931;28;20182;-46
2023/06/30 07:25:35;;;;;;;18.10;10.63;;;23.30;98.90;;;;;;5228877;28;20182;-47
2023/06/30 07:28:06;;;;;;;22.30;11.63;;;23.00;99.20;;;;;;5198725;28;20244;-46
2023/06/30 07:30:37;;;;;;;18.60;11.43;;;23.00;99.50;;;;;;5215611;28;20178;-46
2023/06/30 07:33:07;;;;;;;22.10;12.43;;;22.90;99.90;;;;;;5228542;28;20182;-47
2023/06/30 07:35:38;;;;;;;19.97;12.00;;;22.90;99.90;;;;;;5211889;28;20175;-46
2023/06/30 07:38:09;;;;;;;21.17;12.13;;;23.10;99.90;;;;;;5222949;28;20187;-47
2023/06/30 07:40:40;;;;;;;18.60;10.57;;;23.20;99.90;;;;;;5222416;28;20175;-47
2023/06/30 07:43:10;;;;;;;19.30;11.80;;;23.30;99.90;;;;;;5226980;28;20266;-46
2023/06/30 07:45:41;;;;;;;21.83;12.53;;;23.20;99.90;;;;;;5227014;28;20187;-47
2023/06/30 07:48:12;;;;;;;14.30;10.00;;;23.10;99.90;;;;;;5226285;28;20210;-47
2023/06/30 07:50:43;;;;;;;17.57;11.43;;;23.10;99.90;;;;;;5209182;28;20678;-48
2023/06/30 07:53:14;;;;;;;21.57;10.43;;;23.30;99.90;;;;;;5224060;28;20476;-46
2023/06/30 07:55:44;;;;;;;23.00;11.70;;;23.30;99.90;;;;;;5210614;28;20183;-46
2023/06/30 07:58:15;;;;;;;18.20;11.60;;;23.00;99.90;;;;;;5209633;28;20269;-47
2023/06/30 08:00:46;;;;;;;18.40;11.83;;;22.80;99.90;;;;;;5216865;28;20199;-46
2023/06/30 08:03:16;;;;;;;20.57;11.80;;;22.90;99.90;;;;;;5221581;28;20199;-47
2023/06/30 08:05:47;;;;;;;19.37;10.30;;;22.80;99.90;;;;;;5229292;28;20175;-46
2023/06/30 08:08:18;;;;;;;20.53;10.80;;;23.00;99.90;;;;;;5192181;28;20175;-46
2023/06/30 08:10:49;;;;;;;13.10;9.40;;;23.00;99.90;;;;;;5207524;28;20214;-46
2023/06/30 08:13:19;;;;;;;15.53;10.97;;;22.90;99.90;;;;;;5209565;28;20199;-46
2023/06/30 08:15:50;;;;;;;18.10;11.43;;;23.00;99.90;;;;;;5206117;28;20434;-47
2023/06/30 08:18:21;;;;;;;21.67;11.50;;;23.00;99.90;;;;;;5207903;28;20186;-47
2023/06/30 08:20:51;;;;;;;18.80;12.03;;;23.00;99.90;;;;;;5220732;28;20199;-46
2023/06/30 08:23:22;;;;;;;21.57;11.03;;;22.70;99.90;;;;;;5228168;28;20202;-47
2023/06/30 08:25:55;;;;;;;22.00;11.10;;;22.70;99.90;;;;;;5208153;28;20182;-47
2023/06/30 08:28:25;;;;;;;20.70;12.37;;;22.90;99.90;;;;;;5222384;28;20940;-47
2023/06/30 08:30:56;;;;;;;21.87;12.90;;;22.80;99.90;;;;;;5218903;28;20434;-46
2023/06/30 08:33:28;;;;;;;16.63;10.47;;;23.10;99.90;;;;;;5206800;28;20249;-47
2023/06/30 08:36:00;;;;;;;24.57;11.80;;;23.50;99.90;;;;;;5221559;28;20197;-46
2023/06/30 08:38:31;;;;;;;18.97;10.77;;;23.80;99.90;;;;;;5208789;28;20445;-47
2023/06/30 08:41:02;;;;;;;18.53;11.57;;;24.00;99.90;;;;;;5203472;28;20519;-47
2023/06/30 08:43:34;;;;;;;20.10;10.93;;;24.30;99.90;;;;;;5198077;28;20206;-47
2023/06/30 08:46:07;;;;;;;13.77;10.40;;;24.60;99.90;;;;;;5226958;28;20434;-47
2023/06/30 08:48:38;;;;;;;18.50;9.60;;;24.80;99.90;;;;;;5211124;28;20421;-46
2023/06/30 08:51:10;;;;;;;18.23;10.47;;;25.10;99.90;;;;;;5229716;28;20808;-47
2023/06/30 08:53:41;;;;;;;17.77;11.83;;;25.30;99.90;;;;;;5213273;28;20531;-47
2023/06/30 08:56:14;;;;;;;18.00;10.50;;;25.60;99.90;;;;;;5219139;28;20547;-47
2023/06/30 08:58:45;;;;;;;21.80;11.73;;;25.90;99.90;;;;;;5230477;28;20461;-47
2023/06/30 09:01:17;;;;;;;19.43;10.47;;;26.00;99.90;;;;;;5213919;28;20430;-47
2023/06/30 09:03:48;;;;;;;18.67;10.97;;;26.20;99.90;;;;;;5226777;28;20848;-47
2023/06/30 09:06:19;;;;;;;15.53;10.40;;;26.30;99.50;;;;;;5229433;28;20432;-46
2023/06/30 09:09:25;;;;;;;17.03;10.70;;;26.40;98.70;;;;;;5224240;28;20905;-47
2023/06/30 09:11:56;;;;;;;18.40;10.00;;;26.50;98.40;;;;;;5205186;28;20460;-48
2023/06/30 09:14:33;;;;;;;18.10;11.07;;;26.30;98.20;;;;;;5212846;28;20551;-47
2023/06/30 09:17:04;;;;;;;25.50;12.37;;;26.10;98.40;;;;;;5228318;28;21067;-47
2023/06/30 09:19:35;;;;;;;15.43;10.90;;;25.70;99.50;;;;;;5227102;28;20962;-46
2023/06/30 09:22:08;;;;;;;14.60;10.40;;;25.60;99.90;;;;;;5208258;28;20433;-47
2023/06/30 09:24:39;;;;;;;17.17;12.17;;;25.60;99.90;;;;;;5221754;28;20426;-47
2023/06/30 09:27:11;;;;;;;18.90;10.33;;;25.30;99.90;;;;;;5226200;28;20471;-47
2023/06/30 09:29:42;;;;;;;20.40;11.33;;;25.00;99.90;;;;;;5219687;28;20190;-47
2023/06/30 09:32:14;;;;;;;19.67;12.60;;;24.70;99.90;;;;;;5217647;28;20796;-48
2023/06/30 09:34:45;;;;;;;23.00;12.27;;;24.50;99.90;;;;;;5227734;28;20207;-47
2023/06/30 09:37:16;;;;;;;21.67;13.53;;;24.40;99.90;;;;;;5222569;28;20820;-47
2023/06/30 09:39:50;;;;;;;20.77;11.87;;;24.30;99.90;;;;;;5205285;28;20181;-48
2023/06/30 09:42:21;;;;;;;21.40;12.43;;;24.20;99.90;;;;;;5229111;28;20171;-46
2023/06/30 09:44:53;;;;;;;21.20;11.53;;;24.20;99.90;;;;;;5221306;28;20444;-47
2023/06/30 09:47:26;;;;;;;20.83;11.80;;;24.30;99.90;;;;;;5213472;28;20272;-47
2023/06/30 09:49:58;;;;;;;24.93;12.63;;;24.40;99.90;;;;;;5216485;28;20491;-47
2023/06/30 09:52:32;;;;;;;20.13;14.23;;;24.30;99.90;;;;;;5226866;28;20520;-47
2023/06/30 09:55:09;;;;;;;22.80;12.90;;;24.10;99.90;;;;;;5219593;28;20453;-48
2023/06/30 09:57:43;;;;;;;23.70;13.80;;;23.90;99.90;;;;;;5210547;28;20824;-47
2023/06/30 10:00:16;;;;;;;28.17;17.23;;;23.80;99.90;;;;;;5225602;28;20414;-48
2023/06/30 10:03:05;;;;;;;29.03;17.20;;;23.40;99.90;;;;;;5222204;28;20576;-46
2023/06/30 10:05:37;;;;;;;37.07;18.33;;;23.30;99.90;;;;;;5211472;28;20476;-47
2023/06/30 10:08:09;;;;;;;29.13;16.10;;;23.30;99.90;;;;;;5215870;28;20949;-48
2023/06/30 10:10:42;;;;;;;25.27;16.90;;;23.20;99.90;;;;;;5211043;28;20441;-47
2023/06/30 10:13:15;;;;;;;26.97;17.50;;;22.80;99.90;;;;;;5224273;28;20448;-47
2023/06/30 10:15:45;;;;;;;29.20;16.80;;;22.30;99.90;;;;;;5226064;28;20428;-47
2023/06/30 10:18:17;;;;;;;31.53;18.07;;;21.80;99.90;;;;;;5205237;28;20426;-46
2023/06/30 10:20:48;;;;;;;33.67;19.27;;;21.60;99.90;;;;;;5219742;28;20673;-48
2023/06/30 10:23:22;;;;;;;31.97;17.60;;;21.40;99.90;;;;;;5210666;28;20449;-46
2023/06/30 10:25:54;;;;;;;36.30;20.20;;;21.40;99.90;;;;;;5211138;28;20189;-47
2023/06/30 10:28:25;;;;;;;36.50;21.07;;;21.70;99.90;;;;;;5225985;28;20429;-47
2023/06/30 10:30:56;;;;;;;33.63;19.90;;;21.80;99.90;;;;;;5207951;28;20430;-47
2023/06/30 10:33:27;;;;;;;34.07;20.50;;;22.00;99.90;;;;;;5226987;28;20453;-48
2023/06/30 10:35:59;;;;;;;31.67;18.70;;;22.30;99.90;;;;;;5207668;28;20183;-46
2023/06/30 10:38:30;;;;;;;43.50;20.83;;;22.60;99.90;;;;;;5216665;28;20211;-46
2023/06/30 10:41:19;;;;;;;30.50;20.50;;;22.80;99.90;;;;;;5224381;28;20432;-47
2023/06/30 10:44:08;;;;;;;38.70;20.07;;;22.80;99.90;;;;;;5246872;22;21180;-50
2023/06/30 10:46:49;;;;;;;32.50;19.30;;;22.80;99.90;;;;;;5266966;28;20432;-50
2023/06/30 10:49:26;;;;;;;30.90;16.40;;;22.80;99.90;;;;;;5252448;28;20875;-49
2023/06/30 10:52:01;;;;;;;31.97;17.20;;;22.40;99.90;;;;;;5255962;28;20439;-49
2023/06/30 10:54:41;;;;;;;27.33;16.33;;;21.90;99.90;;;;;;5248455;28;20428;-49
2023/06/30 10:57:19;;;;;;;25.07;15.90;;;21.50;99.90;;;;;;5241539;28;20961;-48
2023/06/30 11:00:06;;;;;;;30.03;15.77;;;21.40;99.90;;;;;;5237735;28;20445;-47
2023/06/30 11:02:47;;;;;;;30.37;16.57;;;21.30;99.90;;;;;;5248492;28;20439;-49
2023/06/30 11:05:26;;;;;;;33.83;19.33;;;21.20;99.90;;;;;;5246089;28;21077;-49
2023/06/30 11:08:09;;;;;;;26.87;16.87;;;21.10;99.90;;;;;;5229763;28;20446;-48
2023/06/30 11:10:47;;;;;;;27.30;15.87;;;21.00;99.90;;;;;;5241771;28;20430;-47
2023/06/30 11:13:36;;;;;;;30.20;17.67;;;21.10;99.90;;;;;;5226839;28;20437;-49
2023/06/30 11:16:08;;;;;;;38.70;19.10;;;21.00;99.90;;;;;;5243340;28;20650;-48
2023/06/30 11:18:39;;;;;;;40.93;18.60;;;20.90;99.90;;;;;;5223453;28;20440;-49
2023/06/30 11:21:11;;;;;;;34.63;20.00;;;20.70;99.90;;;;;;5224658;28;20421;-48
2023/06/30 11:23:43;;;;;;;29.57;18.70;;;20.60;99.90;;;;;;5226210;28;20456;-48
2023/06/30 11:26:18;;;;;;;32.47;18.10;;;20.70;99.90;;;;;;5243516;28;20436;-48
2023/06/30 11:28:49;;;;;;;35.47;21.33;;;20.80;99.90;;;;;;5239346;28;20436;-47
2023/06/30 11:31:19;;;;;;;45.23;21.77;;;20.90;99.90;;;;;;5236313;28;20456;-48
2023/06/30 11:33:50;;;;;;;28.63;18.10;;;20.80;99.90;;;;;;5225656;28;20212;-49
2023/06/30 11:36:21;;;;;;;32.47;18.17;;;20.90;99.90;;;;;;5218006;28;20202;-48
2023/06/30 11:38:52;;;;;;;30.70;18.40;;;20.80;99.90;;;;;;5221768;28;20474;-48
2023/06/30 11:41:23;;;;;;;39.00;18.03;;;21.00;99.90;;;;;;5228886;28;20561;-48
2023/06/30 11:43:58;;;;;;;27.73;17.37;;;21.20;99.90;;;;;;5242227;28;20209;-48
2023/06/30 11:46:35;;;;;;;41.67;20.83;;;21.20;99.90;;;;;;5226558;28;20468;-49
2023/06/30 11:49:06;;;;;;;32.10;19.37;;;21.30;99.90;;;;;;5231981;28;20437;-46
2023/06/30 11:51:37;;;;;;;29.20;18.70;;;21.30;99.90;;;;;;5243364;28;20470;-47
2023/06/30 11:54:07;;;;;;;33.33;19.50;;;21.40;99.90;;;;;;5210366;28;20211;-47
2023/06/30 11:56:39;;;;;;;36.03;20.27;;;21.40;99.90;;;;;;5225076;28;20206;-47
2023/06/30 11:59:09;;;;;;;30.30;19.50;;;21.40;99.90;;;;;;5245928;28;20256;-49
2023/06/30 12:01:41;;;;;;;39.03;21.03;;;21.70;99.90;;;;;;5242793;28;20512;-47
2023/06/30 12:04:12;;;;;;;36.83;19.20;;;22.20;99.90;;;;;;5236546;28;20202;-47
2023/06/30 12:06:46;;;;;;;39.73;18.57;;;22.70;99.90;;;;;;5235916;28;20469;-48
2023/06/30 12:09:17;;;;;;;34.40;18.80;;;22.80;99.90;;;;;;5238183;28;20188;-49
2023/06/30 12:11:49;;;;;;;24.83;14.27;;;22.60;99.90;;;;;;5228875;28;20939;-49
2023/06/30 12:14:22;;;;;;;9.77;7.87;;;22.40;99.90;;;;;;5229554;28;20670;-46
2023/06/30 12:16:53;;;;;;;15.37;8.67;;;21.90;99.90;;;;;;5244954;28;20463;-47
2023/06/30 12:19:27;;;;;;;10.93;7.57;;;21.30;99.90;;;;;;5235938;28;20465;-47
2023/06/30 12:22:00;;;;;;;12.97;7.60;;;21.00;99.90;;;;;;5228466;28;20815;-48
2023/06/30 12:24:34;;;;;;;7.20;5.87;;;20.60;99.90;;;;;;5229261;28;20467;-48
2023/06/30 12:27:06;;;;;;;13.10;6.70;;;20.50;99.90;;;;;;5228998;28;20443;-48
2023/06/30 12:29:44;;;;;;;9.63;7.47;;;20.40;99.90;;;;;;5228613;28;20444;-49
2023/06/30 12:32:15;;;;;;;7.77;5.67;;;20.30;99.90;;;;;;5231070;28;20482;-48
2023/06/30 12:34:46;;;;;;;9.87;6.30;;;20.50;99.90;;;;;;5245301;28;20467;-47
2023/06/30 12:37:18;;;;;;;8.73;6.57;;;20.60;99.90;;;;;;5244538;28;20461;-47
2023/06/30 12:39:49;;;;;;;6.50;5.80;;;20.60;99.90;;;;;;5223629;28;20189;-47
2023/06/30 12:42:22;;;;;;;10.10;5.97;;;20.60;99.90;;;;;;5225734;28;20948;-48
2023/06/30 12:44:53;;;;;;;8.47;6.60;;;20.50;99.90;;;;;;5239618;28;20267;-48
2023/06/30 12:47:23;;;;;;;6.50;5.60;;;20.80;99.90;;;;;;5238091;28;20812;-48
2023/06/30 12:49:54;;;;;;;7.47;5.70;;;20.70;99.90;;;;;;5230844;28;20211;-47
2023/06/30 12:52:24;;;;;;;8.00;5.70;;;20.50;99.90;;;;;;5223121;28;20309;-47